Hovedside
METAR-TAF:

METAR-TAF

Lufthavner :

Auckland internasjonale lufthavn

Auckland, New Zealand

breddegrad: 37-01S, lengdegrad: 174-48E, høyde over havet: 7 m

Gjeldene værobservasjon

Denne rapporten ble laget for 33 minutter siden, klokken 10:30 UTC
Vind 3 kt fra Sør-sørøst
Temperatur 13°C
Luftfuktighet 82%
Trykk 1023 hPa
Sikt 10 km eller mer

METAR: NZAA 231030Z AUTO 16003KT 9999 NCD 13/10 Q1023

Tid: 23:03 (11:03 UTC)

Varsel

Denne rapporten ble laget for 3 timer og 2 minutter siden, klokken 08:01 UTC
Varsel gyldig fra 23. klokken 09 UTC til 24. klokken 12 UTC
Vind 5 kt fra Sør-sørøst
Sikt 10 km eller mer
Spredte skyer i en høyde av 3000 ft
Blir
fra 23. klokken 21 UTC til 23. klokken 23 UTC
Vind 10 kt fra Sørvest
Blir
fra 24. klokken 08 UTC til 24. klokken 10 UTC
Vind 2 kt fra skiftende retning

TAF: NZAA 230801Z 2309/2412 16005KT 9999 SCT030 BECMG 2321/2323 23010KT BECMG 2408/2410 VRB02KT

Værobservasjoner og værvarsel for over 4000 flyplasser (METAR- og TAF-rapporter).

Tilgjengelige stasjoner er representert av de røde og gule prikkene på kartet.

Hold musepekeren over prikken for å se navnet på stasjonen.

Klikk så for å se værobservasjoner og -varsler.

For å forandre kartet kan du klikke på den grønne knappen med svart kryss for å zoome inn, på den grønne knappen med strek for å zoome ut, eller på de grønne pilene for å se tilstøtende kart.


METAR-TAF: